KSMS

Details ICAO KSMS
Name SUMTER
Region United States
Timezone America/New_York (UTC-4.0)
Plans Departing 7
Arriving 7
Stats Elevation 182 ft / 55 m (AMSL)
Location 33.994761° -80.361259°
Runways 2
Magnetic Variation 7.892° W
Sunrise 2018-05-26 10:14:59 UTC / 2018-05-26 06:14:59 Local
Sunset 2018-05-27 00:24:55 UTC / 2018-05-26 20:24:55 Local
Advertisement - Login to hide

Runways

ID Width Length Bearing (true) Bearing (mag) Surface Threshold Offset Overrun Length
05 100 ft / 30 m 5,504 ft / 1,678 m 43.03° 50.92° Asphalt 0 ft / 0 m 0 ft / 0 m
14 120 ft / 37 m 3,082 ft / 940 m 134.12° 142.01° Grass 0 ft / 0 m 0 ft / 0 m
23 100 ft / 30 m 5,504 ft / 1,678 m 223.04° 230.93° Asphalt 0 ft / 0 m 0 ft / 0 m
32 120 ft / 37 m 3,082 ft / 940 m 314.12° 322.01° Grass 0 ft / 0 m 0 ft / 0 m

Map

Weather


0- 5 10 15 20 25 30 35+ Temperature / ° C

Clouds and Precipitation
Forecast for 2018-05-26 18:00 UTC. Updated 5 hours ago

Ground ~20,000 ft ~40,000 ft Winds

METAR

KSMS 262155Z AUTO 16010KT 10SM FEW040 30/21 A2990 RMK AO2

TAF

Not found

Frequencies

Recorded 118.07 MHz AWOS
Approach 125.40 MHz SHAW APP/DEP
Unicom 122.70 MHz CTAF/UNICOM
Warning: Do not use this data for real-world aviation or navigation. No guarantee of current accuracy is given.